Time;durP1;ratioP1;P1;durP2;ratioP2;P2;SDS_P1;SDS_P2;PMS_P1;PMS_P2;Temp;Humidity;BMP_temperature;BMP_pressure;BME280_temperature;BME280_humidity;BME280_pressure;Samples;Min_cycle;Max_cycle;Signal;HPM_P1;HPM_P2
2023/02/09 00:01:26;;;;;;;11.57;6.43;;;2.30;1.00;;;;;;5021416;28;20225;-61
2023/02/09 00:03:53;;;;;;;9.20;6.10;;;2.30;1.00;;;;;;5036088;28;20205;-61
2023/02/09 00:06:22;;;;;;;9.97;6.40;;;2.40;1.00;;;;;;5035998;28;20206;-61
2023/02/09 00:08:49;;;;;;;9.83;5.93;;;2.20;1.00;;;;;;5035398;28;20210;-61
2023/02/09 00:14:11;;;;;;;8.03;6.03;;;2.10;1.00;;;;;;5035371;28;20290;-61
2023/02/09 00:16:39;;;;;;;11.80;5.90;;;2.10;1.00;;;;;;5034900;28;20229;-61
2023/02/09 00:19:06;;;;;;;9.90;6.40;;;1.90;1.00;;;;;;5035216;28;20628;-61
2023/02/09 00:21:33;;;;;;;12.03;6.00;;;1.80;1.00;;;;;;5036701;28;20215;-61
2023/02/09 00:24:00;;;;;;;8.80;6.13;;;1.90;1.00;;;;;;5038427;28;20679;-61
2023/02/09 00:26:26;;;;;;;8.67;6.27;;;1.90;1.00;;;;;;5037875;28;20291;-61
2023/02/09 00:28:53;;;;;;;9.43;5.97;;;1.90;1.00;;;;;;5037389;28;20208;-61
2023/02/09 00:31:20;;;;;;;14.70;6.53;;;1.90;1.00;;;;;;5037752;28;20236;-61
2023/02/09 00:33:47;;;;;;;11.10;5.93;;;2.10;1.00;;;;;;5038502;28;20674;-61
2023/02/09 00:36:14;;;;;;;7.93;5.80;;;1.90;1.00;;;;;;5035519;28;20263;-61
2023/02/09 00:38:42;;;;;;;10.57;5.77;;;2.00;1.00;;;;;;5036983;28;20205;-61
2023/02/09 00:41:10;;;;;;;9.87;6.10;;;2.10;1.00;;;;;;5026350;28;20218;-61
2023/02/09 00:43:37;;;;;;;14.40;6.20;;;2.00;1.00;;;;;;5024774;28;20232;-61
2023/02/09 00:46:05;;;;;;;9.23;5.87;;;1.80;1.00;;;;;;5024134;28;20200;-61
2023/02/09 00:48:32;;;;;;;10.43;5.97;;;1.80;1.00;;;;;;5028082;28;20277;-61
2023/02/09 00:50:59;;;;;;;12.30;6.00;;;1.90;1.00;;;;;;5029814;28;20223;-61
2023/02/09 00:53:26;;;;;;;11.47;6.43;;;1.60;1.00;;;;;;5037910;28;20228;-61
2023/02/09 00:55:53;;;;;;;9.83;5.83;;;1.50;1.00;;;;;;5035882;28;20192;-60
2023/02/09 00:58:20;;;;;;;10.13;6.50;;;1.50;1.00;;;;;;5038430;28;20215;-60
2023/02/09 01:00:48;;;;;;;9.30;5.63;;;1.60;1.00;;;;;;5035578;28;20291;-60
2023/02/09 01:03:14;;;;;;;8.57;6.00;;;1.60;1.00;;;;;;5037030;28;20690;-59
2023/02/09 01:05:42;;;;;;;7.63;5.40;;;1.50;1.00;;;;;;5029375;28;20338;-60
2023/02/09 01:08:09;;;;;;;8.43;5.30;;;1.70;1.00;;;;;;5038267;28;20251;-60
2023/02/09 01:10:37;;;;;;;8.57;5.47;;;1.70;1.00;;;;;;5036775;28;20287;-60
2023/02/09 01:13:04;;;;;;;10.97;5.77;;;1.80;1.00;;;;;;5033659;28;20778;-61
2023/02/09 01:15:31;;;;;;;8.83;5.13;;;1.80;1.00;;;;;;5033970;28;20251;-61
2023/02/09 01:17:58;;;;;;;10.47;5.33;;;1.80;1.00;;;;;;5035330;28;20809;-60
2023/02/09 01:20:26;;;;;;;10.70;6.40;;;1.80;1.00;;;;;;5033143;28;20766;-60
2023/02/09 01:22:53;;;;;;;10.83;5.67;;;1.90;1.00;;;;;;5035901;28;20196;-60
2023/02/09 01:25:20;;;;;;;10.07;6.03;;;1.90;1.00;;;;;;5023113;28;20208;-60
2023/02/09 01:27:47;;;;;;;9.90;5.50;;;1.70;1.00;;;;;;5025841;28;20223;-60
2023/02/09 01:30:14;;;;;;;8.77;5.40;;;1.50;1.00;;;;;;5023611;28;20236;-59
2023/02/09 01:32:40;;;;;;;7.10;4.87;;;1.50;1.00;;;;;;5025978;28;20220;-60
2023/02/09 01:35:07;;;;;;;9.00;6.13;;;1.50;1.00;;;;;;5023489;28;20199;-59
2023/02/09 01:37:35;;;;;;;7.73;4.80;;;1.40;1.00;;;;;;5023863;28;20224;-60
2023/02/09 01:40:03;;;;;;;10.57;5.27;;;1.30;1.00;;;;;;5026540;28;20646;-60
2023/02/09 01:42:30;;;;;;;8.83;5.50;;;1.30;1.00;;;;;;5027760;28;20723;-60
2023/02/09 01:44:59;;;;;;;8.47;5.43;;;1.30;1.00;;;;;;5028009;28;20215;-60
2023/02/09 01:47:26;;;;;;;13.03;5.43;;;1.40;1.00;;;;;;5035633;28;20227;-60
2023/02/09 01:49:53;;;;;;;8.50;5.40;;;1.30;1.00;;;;;;5032452;28;20334;-61
2023/02/09 01:52:25;;;;;;;6.60;4.57;;;1.30;1.00;;;;;;5031725;28;20292;-61
2023/02/09 01:54:59;;;;;;;8.17;5.17;;;1.20;1.00;;;;;;5027831;28;20302;-60
2023/02/09 01:57:31;;;;;;;8.80;5.50;;;1.20;1.00;;;;;;5029988;28;20192;-59
2023/02/09 02:00:03;;;;;;;8.20;4.97;;;1.20;1.00;;;;;;5029933;28;20201;-61
2023/02/09 02:02:30;;;;;;;10.17;5.57;;;1.10;1.00;;;;;;5028661;28;20573;-59
2023/02/09 02:04:57;;;;;;;7.60;5.33;;;1.10;1.00;;;;;;5030397;28;20207;-62
2023/02/09 02:07:30;;;;;;;8.20;5.23;;;1.20;1.00;;;;;;5040107;28;20296;-61
2023/02/09 02:09:57;;;;;;;10.77;5.53;;;1.10;1.00;;;;;;5037251;28;20208;-61
2023/02/09 02:12:25;;;;;;;8.13;4.87;;;1.00;1.00;;;;;;5033021;28;20221;-62
2023/02/09 02:14:52;;;;;;;10.40;5.20;;;1.10;1.00;;;;;;5030200;28;20226;-62
2023/02/09 02:17:53;;;;;;;7.73;5.17;;;1.10;1.00;;;;;;5027537;28;20200;-65
2023/02/09 02:20:29;;;;;;;5.40;4.43;;;1.00;1.00;;;;;;5028052;28;20207;-62
2023/02/09 02:23:21;;;;;;;7.70;4.40;;;0.90;1.00;;;;;;5026867;28;20196;-62
2023/02/09 02:26:02;;;;;;;8.90;4.80;;;0.90;1.00;;;;;;5033987;28;20305;-62
2023/02/09 02:28:50;;;;;;;7.00;4.63;;;0.90;1.00;;;;;;5024836;28;20259;-61
2023/02/09 02:32:07;;;;;;;8.03;4.63;;;0.90;1.00;;;;;;5023459;28;20467;-62
2023/02/09 02:34:56;;;;;;;7.53;4.50;;;0.90;1.00;;;;;;5020660;28;20210;-62
2023/02/09 02:37:51;;;;;;;8.40;4.60;;;0.90;1.00;;;;;;5022600;28;20232;-61
2023/02/09 02:40:27;;;;;;;9.40;4.83;;;0.90;1.00;;;;;;5027097;28;20199;-61
2023/02/09 02:42:53;;;;;;;7.83;4.90;;;0.90;1.00;;;;;;5028970;28;20216;-61
2023/02/09 02:45:54;;;;;;;10.40;5.10;;;0.90;1.00;;;;;;5028614;28;20214;-61
2023/02/09 02:48:35;;;;;;;6.87;4.40;;;0.90;1.00;;;;;;5027198;28;20207;-61
2023/02/09 02:51:06;;;;;;;9.63;5.00;;;0.80;1.00;;;;;;5019776;28;20204;-61
2023/02/09 02:53:36;;;;;;;12.37;4.90;;;0.80;1.00;;;;;;5029188;28;20199;-62
2023/02/09 02:56:14;;;;;;;7.97;4.47;;;0.90;1.00;;;;;;5027639;28;20307;-62
2023/02/09 02:58:44;;;;;;;12.30;5.40;;;0.80;1.00;;;;;;5027786;28;20204;-61
2023/02/09 03:01:15;;;;;;;7.40;5.43;;;0.80;1.00;;;;;;5027810;28;20213;-62
2023/02/09 03:03:45;;;;;;;8.03;5.30;;;0.70;1.00;;;;;;5035941;28;20647;-62
2023/02/09 03:06:12;;;;;;;10.23;5.47;;;0.60;1.00;;;;;;5031687;28;20773;-65
2023/02/09 03:09:05;;;;;;;7.97;4.90;;;0.70;1.00;;;;;;5037209;28;20648;-61
2023/02/09 03:11:40;;;;;;;6.97;4.83;;;0.80;1.00;;;;;;5034263;28;20331;-61
2023/02/09 03:14:28;;;;;;;8.50;5.47;;;0.70;1.00;;;;;;5039831;28;20234;-61
2023/02/09 03:17:26;;;;;;;8.67;5.03;;;0.70;1.00;;;;;;5038919;28;20249;-61
2023/02/09 03:20:09;;;;;;;7.90;4.60;;;0.80;1.00;;;;;;5038525;28;20824;-60
2023/02/09 03:22:43;;;;;;;7.77;4.67;;;0.70;1.00;;;;;;5038799;28;20290;-61
2023/02/09 03:25:17;;;;;;;8.40;5.17;;;0.70;1.00;;;;;;5038833;28;20287;-62
2023/02/09 03:28:13;;;;;;;9.13;4.50;;;0.60;1.00;;;;;;5039413;28;20576;-61
2023/02/09 03:30:43;;;;;;;8.13;5.00;;;0.70;1.00;;;;;;5016417;28;20212;-61
2023/02/09 03:33:20;;;;;;;6.87;4.30;;;0.60;1.00;;;;;;5032444;28;20729;-61
2023/02/09 03:35:50;;;;;;;6.87;4.73;;;0.60;1.00;;;;;;5010470;28;20231;-61
2023/02/09 03:38:17;;;;;;;9.67;5.17;;;0.50;1.00;;;;;;5028961;28;20208;-61
2023/02/09 03:40:44;;;;;;;8.87;5.87;;;0.40;1.00;;;;;;5021230;28;20232;-61
2023/02/09 03:43:11;;;;;;;8.17;5.17;;;0.50;1.00;;;;;;5026202;28;20208;-61
2023/02/09 03:45:39;;;;;;;6.73;4.67;;;0.60;1.00;;;;;;5023799;28;20204;-61
2023/02/09 03:48:06;;;;;;;7.93;4.70;;;0.60;1.00;;;;;;5032558;28;20214;-61
2023/02/09 03:50:34;;;;;;;8.80;5.03;;;0.60;1.00;;;;;;5024704;28;20302;-61
2023/02/09 03:53:05;;;;;;;6.93;4.53;;;0.70;1.00;;;;;;5025460;28;20230;-61
2023/02/09 03:55:32;;;;;;;8.43;4.30;;;0.50;1.00;;;;;;5024909;28;20207;-61
2023/02/09 03:57:59;;;;;;;8.67;4.67;;;0.70;1.00;;;;;;5025521;28;20386;-61
2023/02/09 04:00:26;;;;;;;7.37;4.60;;;0.90;1.00;;;;;;5025448;28;20246;-61
2023/02/09 04:02:53;;;;;;;8.63;4.63;;;0.90;1.00;;;;;;5033730;28;20202;-63
2023/02/09 04:05:21;;;;;;;7.50;4.70;;;0.90;1.00;;;;;;5024475;28;20299;-70
2023/02/09 04:07:48;;;;;;;9.03;4.97;;;0.80;1.00;;;;;;5025263;28;20227;-62
2023/02/09 04:10:15;;;;;;;8.73;4.67;;;0.90;1.00;;;;;;5025932;28;20585;-62
2023/02/09 04:12:42;;;;;;;8.83;4.63;;;0.60;1.00;;;;;;5022057;28;20219;-63
2023/02/09 04:15:09;;;;;;;7.73;5.13;;;0.50;1.00;;;;;;5025538;28;20232;-61
2023/02/09 04:17:36;;;;;;;8.03;4.20;;;0.50;1.00;;;;;;5023485;28;20710;-61
2023/02/09 04:20:03;;;;;;;9.93;4.93;;;0.60;1.00;;;;;;5024990;28;20211;-61
2023/02/09 04:22:30;;;;;;;8.53;4.97;;;0.60;1.00;;;;;;5024565;28;20227;-61
2023/02/09 04:24:56;;;;;;;8.57;4.40;;;0.70;1.00;;;;;;5026603;28;20850;-61
2023/02/09 04:27:23;;;;;;;10.17;4.53;;;0.40;1.00;;;;;;5025356;28;20211;-61
2023/02/09 04:29:50;;;;;;;8.00;3.97;;;0.50;1.00;;;;;;5026411;28;20212;-61
2023/02/09 04:32:16;;;;;;;6.27;3.90;;;0.30;1.00;;;;;;5023146;28;20224;-62
2023/02/09 04:34:43;;;;;;;6.33;4.57;;;0.40;1.00;;;;;;5028562;28;20292;-62
2023/02/09 04:37:10;;;;;;;11.07;4.77;;;0.50;1.00;;;;;;5025600;28;20886;-61
2023/02/09 04:39:37;;;;;;;11.13;5.40;;;0.30;1.00;;;;;;5027514;28;20210;-62
2023/02/09 04:42:03;;;;;;;8.57;4.00;;;0.30;1.00;;;;;;5026288;28;20208;-62
2023/02/09 04:44:30;;;;;;;6.70;4.67;;;0.20;1.00;;;;;;5028782;28;20731;-65
2023/02/09 04:46:57;;;;;;;8.07;4.30;;;0.10;1.00;;;;;;5028827;28;20201;-61
2023/02/09 04:49:24;;;;;;;6.30;4.33;;;0.20;1.00;;;;;;5025349;28;20206;-61
2023/02/09 04:51:50;;;;;;;6.53;4.63;;;0.20;1.00;;;;;;5025594;28;20222;-61
2023/02/09 04:54:17;;;;;;;8.50;4.73;;;0.30;1.00;;;;;;5024945;28;20204;-62
2023/02/09 04:56:44;;;;;;;9.63;4.90;;;0.50;1.00;;;;;;5026934;28;20234;-64
2023/02/09 05:01:56;;;;;;;9.30;5.33;;;0.40;1.00;;;;;;5020460;28;20219;-62
2023/02/09 05:04:23;;;;;;;7.63;5.00;;;0.20;1.00;;;;;;5024838;28;20208;-61
2023/02/09 05:06:49;;;;;;;10.27;4.93;;;0.30;1.00;;;;;;5026365;28;20711;-62
2023/02/09 05:09:16;;;;;;;9.23;5.20;;;0.40;1.00;;;;;;5026882;28;20230;-62
2023/02/09 05:11:43;;;;;;;8.93;4.63;;;0.50;1.00;;;;;;5028577;28;20711;-61
2023/02/09 05:14:10;;;;;;;10.40;4.87;;;0.50;1.00;;;;;;5028446;28;20926;-61
2023/02/09 05:16:37;;;;;;;10.63;5.07;;;0.50;1.00;;;;;;5030004;28;20253;-61
2023/02/09 05:19:05;;;;;;;7.43;4.63;;;0.50;1.00;;;;;;5030444;28;20204;-61
2023/02/09 05:21:31;;;;;;;7.87;4.60;;;0.50;1.00;;;;;;5032509;28;20206;-61
2023/02/09 05:23:58;;;;;;;10.80;5.30;;;0.50;1.00;;;;;;5030545;28;20656;-61
2023/02/09 05:26:25;;;;;;;7.77;4.87;;;0.30;1.00;;;;;;5033532;28;20243;-61
2023/02/09 05:28:52;;;;;;;8.70;5.13;;;0.50;1.00;;;;;;5033709;28;20197;-60
2023/02/09 05:31:19;;;;;;;7.20;4.27;;;0.70;1.00;;;;;;5033456;28;20294;-61
2023/02/09 05:33:46;;;;;;;7.50;4.43;;;0.70;1.00;;;;;;5031094;28;20796;-61
2023/02/09 05:36:12;;;;;;;9.80;4.80;;;0.50;1.00;;;;;;5022365;28;20218;-61
2023/02/09 05:38:40;;;;;;;6.87;4.37;;;0.50;1.00;;;;;;5028921;28;20335;-61
2023/02/09 05:41:09;;;;;;;9.80;4.87;;;0.60;1.00;;;;;;5031064;28;20222;-61
2023/02/09 05:43:36;;;;;;;8.77;4.87;;;0.50;1.00;;;;;;5032208;28;20235;-61
2023/02/09 05:46:03;;;;;;;7.50;4.83;;;0.60;1.00;;;;;;5029474;28;20230;-61
2023/02/09 05:48:33;;;;;;;8.07;5.00;;;0.40;1.00;;;;;;5025760;28;20245;-61
2023/02/09 05:51:00;;;;;;;9.80;5.43;;;0.40;1.00;;;;;;5029954;28;20282;-63
2023/02/09 05:53:27;;;;;;;7.43;5.13;;;0.30;1.00;;;;;;5034714;28;20224;-59
2023/02/09 05:55:53;;;;;;;9.03;5.50;;;0.50;1.00;;;;;;5029585;28;20211;-64
2023/02/09 05:58:20;;;;;;;8.23;4.87;;;0.50;1.00;;;;;;5027898;28;20243;-60
2023/02/09 06:00:47;;;;;;;7.63;4.50;;;0.50;1.00;;;;;;5025995;28;20249;-59
2023/02/09 06:03:14;;;;;;;14.87;4.83;;;0.50;1.00;;;;;;5027063;28;20263;-60
2023/02/09 06:05:44;;;;;;;6.70;4.40;;;0.50;1.00;;;;;;5026093;28;20323;-60
2023/02/09 06:08:11;;;;;;;10.43;4.97;;;0.40;1.00;;;;;;5023714;28;20216;-60
2023/02/09 06:10:37;;;;;;;8.03;4.43;;;0.40;1.00;;;;;;5026735;28;20207;-60
2023/02/09 06:13:04;;;;;;;8.53;4.63;;;0.30;1.00;;;;;;5028500;28;20220;-62
2023/02/09 06:15:31;;;;;;;8.87;4.83;;;0.20;1.00;;;;;;5026897;28;20618;-62
2023/02/09 06:17:58;;;;;;;7.70;5.17;;;0.20;1.00;;;;;;5028307;28;20201;-60
2023/02/09 06:20:25;;;;;;;6.90;4.90;;;0.20;1.00;;;;;;5031959;28;20653;-60
2023/02/09 06:22:51;;;;;;;8.00;5.03;;;0.10;1.00;;;;;;5028627;28;20277;-60
2023/02/09 06:25:18;;;;;;;9.00;4.97;;;0.30;1.00;;;;;;5026034;28;20312;-61
2023/02/09 06:27:45;;;;;;;9.13;5.07;;;0.30;1.00;;;;;;5026856;28;20659;-61
2023/02/09 06:30:12;;;;;;;7.03;4.67;;;0.40;1.00;;;;;;5026353;28;20205;-60
2023/02/09 06:32:39;;;;;;;11.97;6.00;;;0.50;1.00;;;;;;5027830;28;20219;-61
2023/02/09 06:35:06;;;;;;;8.23;5.50;;;0.60;1.00;;;;;;5033192;28;20338;-61
2023/02/09 06:37:33;;;;;;;7.03;4.97;;;0.60;1.00;;;;;;5025295;28;20225;-61
2023/02/09 06:40:00;;;;;;;9.17;5.30;;;0.60;1.00;;;;;;5040550;28;20338;-61
2023/02/09 06:42:42;;;;;;;8.67;5.03;;;0.50;1.00;;;;;;5027990;28;20201;-63
2023/02/09 06:45:14;;;;;;;6.67;4.73;;;0.70;1.00;;;;;;5027277;28;20288;-61
2023/02/09 06:47:42;;;;;;;11.27;5.80;;;0.50;1.00;;;;;;5025220;28;20648;-60
2023/02/09 06:50:11;;;;;;;10.07;5.23;;;0.40;1.00;;;;;;5028176;28;20248;-62
2023/02/09 06:52:38;;;;;;;10.43;5.47;;;0.10;1.00;;;;;;5027714;28;20630;-62
2023/02/09 06:55:06;;;;;;;9.80;5.20;;;0.10;1.00;;;;;;5027050;28;20554;-61
2023/02/09 06:57:33;;;;;;;8.53;5.43;;;0.00;1.00;;;;;;5028027;28;20212;-61
2023/02/09 07:00:01;;;;;;;9.53;4.97;;;0.00;1.00;;;;;;5025641;28;20208;-61
2023/02/09 07:02:28;;;;;;;8.77;5.40;;;0.00;1.00;;;;;;5023129;28;20203;-60
2023/02/09 07:04:56;;;;;;;7.90;4.77;;;0.00;1.00;;;;;;5036250;28;20246;-61
2023/02/09 07:07:23;;;;;;;10.27;5.23;;;-0.10;1.00;;;;;;5031625;28;20199;-61
2023/02/09 07:09:51;;;;;;;8.93;5.20;;;0.00;1.00;;;;;;5031434;28;20203;-62
2023/02/09 07:12:18;;;;;;;10.07;5.13;;;-0.10;1.00;;;;;;5036819;28;20295;-60
2023/02/09 07:14:45;;;;;;;12.10;5.40;;;-0.10;1.00;;;;;;5033397;28;20239;-61
2023/02/09 07:17:12;;;;;;;9.83;5.60;;;0.00;1.00;;;;;;5035244;28;20597;-60
2023/02/09 07:19:38;;;;;;;9.63;5.90;;;-0.10;1.00;;;;;;5035343;28;20215;-60
2023/02/09 07:22:05;;;;;;;9.37;5.93;;;-0.10;1.00;;;;;;4660219;28;10000555;-60
2023/02/09 07:24:32;;;;;;;9.93;5.47;;;-0.10;1.00;;;;;;5020643;28;20219;-60
2023/02/09 07:26:59;;;;;;;9.60;5.53;;;0.00;1.00;;;;;;5018692;28;20204;-61
2023/02/09 07:29:26;;;;;;;9.67;5.87;;;0.20;1.00;;;;;;5024608;28;20661;-60
2023/02/09 07:31:52;;;;;;;10.40;5.40;;;0.40;1.00;;;;;;5010870;28;20203;-62
2023/02/09 07:34:19;;;;;;;10.40;5.53;;;0.40;1.00;;;;;;5029014;28;20232;-61
2023/02/09 07:36:46;;;;;;;12.67;5.03;;;0.30;1.00;;;;;;5020664;28;20230;-62
2023/02/09 07:39:13;;;;;;;15.37;6.37;;;0.40;1.00;;;;;;5020198;28;20204;-61
2023/02/09 07:41:40;;;;;;;8.80;5.53;;;0.40;1.00;;;;;;5022763;28;20205;-61
2023/02/09 07:44:08;;;;;;;11.23;6.00;;;0.40;1.00;;;;;;5023980;28;20594;-62
2023/02/09 07:46:35;;;;;;;10.07;5.90;;;0.30;1.00;;;;;;5019761;28;20200;-64
2023/02/09 07:49:02;;;;;;;9.40;5.77;;;0.50;1.00;;;;;;5024360;28;21197;-63
2023/02/09 07:51:29;;;;;;;9.90;5.67;;;0.70;1.00;;;;;;5020431;28;20246;-62
2023/02/09 07:53:59;;;;;;;9.00;5.47;;;0.50;1.00;;;;;;5021260;28;20705;-62
2023/02/09 07:56:27;;;;;;;9.93;5.20;;;0.70;1.00;;;;;;5020210;28;20209;-64
2023/02/09 07:58:54;;;;;;;7.70;5.13;;;0.50;1.00;;;;;;5034224;28;20656;-62
2023/02/09 08:01:22;;;;;;;9.27;5.67;;;0.50;1.00;;;;;;5020369;28;20207;-62
2023/02/09 08:03:49;;;;;;;9.07;5.57;;;0.50;1.00;;;;;;5024267;28;20208;-63
2023/02/09 08:06:26;;;;;;;11.27;6.07;;;0.50;1.00;;;;;;5012335;28;20277;-62
2023/02/09 08:09:08;;;;;;;9.80;5.67;;;0.60;1.00;;;;;;5026002;28;20206;-63
2023/02/09 08:11:41;;;;;;;9.37;5.73;;;0.70;1.00;;;;;;5023782;28;20547;-62
2023/02/09 08:14:21;;;;;;;12.30;5.53;;;0.80;1.00;;;;;;5022150;28;20220;-62
2023/02/09 08:16:50;;;;;;;10.63;5.30;;;0.70;1.00;;;;;;5020209;28;20204;-62
2023/02/09 08:19:21;;;;;;;10.30;5.57;;;0.80;1.00;;;;;;5019663;28;20204;-62
2023/02/09 08:21:49;;;;;;;8.67;5.50;;;0.60;1.00;;;;;;5018899;28;20217;-62
2023/02/09 08:24:18;;;;;;;8.20;5.10;;;0.70;1.00;;;;;;5024583;28;20298;-62
2023/02/09 08:26:45;;;;;;;8.17;5.30;;;0.60;1.00;;;;;;5022428;28;20302;-63
2023/02/09 08:29:12;;;;;;;8.43;5.47;;;0.70;1.00;;;;;;5022743;28;20206;-62
2023/02/09 08:31:39;;;;;;;10.00;6.10;;;0.90;1.00;;;;;;5019817;28;20652;-62
2023/02/09 08:34:06;;;;;;;9.53;5.57;;;0.90;1.00;;;;;;5028142;28;20212;-62
2023/02/09 08:36:36;;;;;;;10.20;6.43;;;1.10;1.00;;;;;;5033142;28;20251;-62
2023/02/09 08:39:04;;;;;;;9.27;5.50;;;1.00;1.00;;;;;;5029473;28;20196;-62
2023/02/09 08:41:30;;;;;;;11.07;6.33;;;0.80;1.00;;;;;;5024016;28;21148;-62
2023/02/09 08:43:57;;;;;;;8.97;5.37;;;0.80;1.00;;;;;;5035261;28;20303;-63
2023/02/09 08:46:24;;;;;;;10.90;5.80;;;0.90;1.00;;;;;;5031182;28;20208;-62
2023/02/09 08:48:51;;;;;;;9.13;5.33;;;1.10;1.00;;;;;;5028723;28;20311;-62
2023/02/09 08:51:18;;;;;;;9.30;5.53;;;1.50;1.00;;;;;;5031296;28;20215;-62
2023/02/09 08:53:50;;;;;;;8.63;5.83;;;1.40;1.00;;;;;;5029561;28;20253;-62
2023/02/09 08:56:19;;;;;;;8.53;5.03;;;1.60;1.00;;;;;;5030307;28;20589;-62
2023/02/09 08:58:47;;;;;;;8.87;5.87;;;1.40;1.00;;;;;;5030443;28;20220;-62
2023/02/09 09:01:14;;;;;;;12.87;6.20;;;1.40;1.00;;;;;;5025755;28;20623;-62
2023/02/09 09:03:41;;;;;;;10.50;5.90;;;1.60;1.00;;;;;;5025878;28;20230;-63
2023/02/09 09:06:10;;;;;;;9.03;5.73;;;1.60;1.00;;;;;;5030190;28;20246;-64
2023/02/09 09:08:38;;;;;;;12.33;6.40;;;1.50;1.00;;;;;;5045345;28;20286;-63
2023/02/09 09:11:09;;;;;;;13.13;6.43;;;1.80;1.00;;;;;;5036341;28;20249;-62
2023/02/09 09:13:35;;;;;;;10.00;5.77;;;2.00;1.00;;;;;;5033841;28;20306;-62
2023/02/09 09:16:02;;;;;;;7.83;5.20;;;2.40;1.00;;;;;;5033311;28;20290;-62
2023/02/09 09:18:31;;;;;;;11.47;6.40;;;2.40;1.00;;;;;;5028367;28;20220;-63
2023/02/09 09:20:57;;;;;;;8.70;5.73;;;2.30;1.00;;;;;;5031737;28;20701;-63
2023/02/09 09:23:24;;;;;;;10.53;6.03;;;2.10;1.00;;;;;;5026304;28;20213;-62
2023/02/09 09:25:51;;;;;;;14.00;6.20;;;2.20;1.00;;;;;;5029014;28;20216;-62
2023/02/09 09:28:18;;;;;;;9.70;6.07;;;2.30;1.00;;;;;;5031986;28;20204;-63
2023/02/09 09:30:45;;;;;;;13.33;5.63;;;2.50;1.00;;;;;;5030763;28;20297;-62
2023/02/09 09:33:12;;;;;;;12.33;6.00;;;2.40;1.00;;;;;;5022893;28;20637;-63
2023/02/09 09:35:39;;;;;;;8.23;6.27;;;2.50;1.00;;;;;;5023757;28;20200;-64
2023/02/09 09:38:05;;;;;;;11.43;6.30;;;2.50;1.00;;;;;;5046109;28;20215;-62
2023/02/09 09:40:35;;;;;;;10.47;5.97;;;2.40;1.00;;;;;;5035324;28;20291;-63
2023/02/09 09:43:04;;;;;;;13.00;6.13;;;2.40;1.00;;;;;;5031194;28;20223;-63
2023/02/09 09:45:34;;;;;;;12.93;6.43;;;2.70;1.00;;;;;;5032267;28;20209;-63
2023/02/09 09:48:01;;;;;;;8.93;5.83;;;2.80;1.00;;;;;;5028897;28;21157;-62
2023/02/09 09:50:37;;;;;;;10.60;6.93;;;2.90;1.00;;;;;;5032335;28;20720;-63
2023/02/09 09:53:31;;;;;;;11.50;5.90;;;3.00;1.00;;;;;;5034002;28;20723;-64
2023/02/09 09:56:03;;;;;;;9.80;6.40;;;2.80;1.00;;;;;;5026171;28;20197;-62
2023/02/09 09:58:31;;;;;;;11.20;5.73;;;2.90;1.00;;;;;;5032690;28;20207;-64
2023/02/09 10:00:58;;;;;;;11.27;6.70;;;3.00;1.00;;;;;;5030231;28;20228;-63
2023/02/09 10:03:26;;;;;;;11.10;6.73;;;3.10;1.00;;;;;;5032599;28;20219;-62
2023/02/09 10:05:58;;;;;;;9.87;6.37;;;3.20;1.00;;;;;;5036125;28;20748;-63
2023/02/09 10:08:35;;;;;;;11.17;7.00;;;3.10;1.00;;;;;;5024801;28;20210;-64
2023/02/09 10:11:08;;;;;;;13.67;6.13;;;3.20;1.00;;;;;;5036194;28;20226;-63
2023/02/09 10:13:53;;;;;;;11.17;6.73;;;3.30;1.00;;;;;;5039619;28;20281;-63
2023/02/09 10:16:24;;;;;;;14.83;6.90;;;3.60;1.00;;;;;;5038900;28;20330;-64
2023/02/09 10:18:57;;;;;;;12.00;6.17;;;3.60;1.00;;;;;;5039326;28;20593;-63
2023/02/09 10:21:26;;;;;;;13.90;6.00;;;3.60;1.00;;;;;;5038103;28;20196;-63
2023/02/09 10:23:59;;;;;;;12.43;6.67;;;3.60;1.00;;;;;;5037097;28;20205;-63
2023/02/09 10:26:32;;;;;;;11.63;6.43;;;3.70;1.00;;;;;;5037836;28;20219;-69
2023/02/09 10:29:18;;;;;;;10.10;7.03;;;3.90;1.00;;;;;;5031397;28;20200;-62
2023/02/09 10:31:58;;;;;;;12.70;7.23;;;3.80;1.00;;;;;;5027640;28;20218;-62
2023/02/09 10:34:47;;;;;;;12.37;7.37;;;4.30;1.00;;;;;;5030220;28;20491;-62
2023/02/09 10:37:33;;;;;;;12.03;7.30;;;4.40;1.00;;;;;;5030840;28;20311;-63
2023/02/09 10:40:22;;;;;;;10.97;6.83;;;4.30;1.00;;;;;;5036397;28;20235;-63
2023/02/09 10:43:01;;;;;;;12.67;7.37;;;4.60;1.00;;;;;;5034099;28;20286;-63
2023/02/09 10:45:37;;;;;;;12.27;6.90;;;4.80;1.00;;;;;;5035374;28;20268;-64
2023/02/09 10:48:17;;;;;;;9.63;6.63;;;4.50;1.00;;;;;;5031491;28;20226;-63
2023/02/09 10:51:06;;;;;;;13.33;6.67;;;4.80;1.00;;;;;;5037921;28;20637;-64
2023/02/09 10:53:40;;;;;;;11.40;6.60;;;4.80;1.00;;;;;;5033317;28;20208;-63
2023/02/09 10:56:19;;;;;;;9.43;5.57;;;4.80;1.00;;;;;;5052484;28;20198;-63
2023/02/09 10:58:51;;;;;;;11.13;7.10;;;4.70;1.00;;;;;;5028360;28;20285;-65
2023/02/09 11:01:23;;;;;;;11.60;7.17;;;4.90;1.00;;;;;;5026236;28;20288;-64
2023/02/09 11:03:55;;;;;;;16.17;7.60;;;4.90;1.00;;;;;;5035661;28;20564;-65
2023/02/09 11:06:22;;;;;;;9.63;6.67;;;5.00;1.00;;;;;;5034621;28;20660;-64
2023/02/09 11:08:52;;;;;;;13.37;7.67;;;5.00;1.00;;;;;;5020782;28;20661;-63
2023/02/09 11:11:25;;;;;;;11.87;7.23;;;5.10;1.00;;;;;;5033727;28;20200;-63
2023/02/09 11:13:52;;;;;;;14.13;7.23;;;5.10;1.00;;;;;;5045909;28;20271;-62
2023/02/09 11:16:46;;;;;;;17.60;8.43;;;5.40;1.00;;;;;;5031442;28;20238;-60
2023/02/09 11:19:18;;;;;;;10.53;7.53;;;5.40;1.00;;;;;;5032592;28;20326;-61
2023/02/09 11:22:05;;;;;;;12.53;7.90;;;5.30;1.00;;;;;;5035058;28;20227;-62
2023/02/09 11:24:37;;;;;;;14.80;8.10;;;5.50;1.00;;;;;;5037076;28;21068;-62
2023/02/09 11:27:41;;;;;;;14.67;8.50;;;5.50;1.00;;;;;;5034674;28;20241;-62
2023/02/09 11:30:32;;;;;;;10.87;8.13;;;5.40;1.00;;;;;;5028782;28;20290;-62
2023/02/09 11:33:18;;;;;;;13.63;8.17;;;5.40;1.00;;;;;;5032930;28;20222;-60
2023/02/09 11:36:15;;;;;;;12.53;8.57;;;5.30;1.00;;;;;;5034989;28;20787;-62
2023/02/09 11:39:01;;;;;;;12.80;8.43;;;5.50;1.00;;;;;;5035306;28;20279;-60
2023/02/09 11:44:53;;;;;;;12.90;8.23;;;5.60;1.00;;;;;;5032158;28;20316;-61
2023/02/09 11:47:32;;;;;;;14.10;8.60;;;5.50;1.00;;;;;;5034401;28;20682;-61
2023/02/09 11:50:03;;;;;;;15.27;8.67;;;5.60;1.00;;;;;;5032408;28;20201;-64
2023/02/09 11:52:42;;;;;;;15.50;8.60;;;5.90;1.00;;;;;;5034149;28;20205;-61
2023/02/09 11:55:38;;;;;;;17.50;8.67;;;6.30;1.00;;;;;;5034959;28;20325;-61
2023/02/09 11:58:33;;;;;;;15.33;8.53;;;6.00;1.00;;;;;;5030101;28;20235;-62
2023/02/09 12:01:19;;;;;;;15.30;9.27;;;5.80;1.00;;;;;;5030953;28;20198;-62
2023/02/09 12:04:00;;;;;;;12.53;8.57;;;5.60;1.00;;;;;;5031633;28;20224;-65
2023/02/09 12:06:35;;;;;;;13.10;9.60;;;5.60;1.00;;;;;;5032070;28;20568;-61
2023/02/09 12:09:07;;;;;;;16.97;8.97;;;5.80;1.00;;;;;;5034660;28;20208;-62
2023/02/09 12:11:40;;;;;;;15.33;10.33;;;5.80;1.00;;;;;;5029555;28;20204;-60
2023/02/09 12:14:45;;;;;;;14.60;8.90;;;5.80;1.00;;;;;;5032725;28;20219;-63
2023/02/09 12:17:29;;;;;;;14.27;9.40;;;5.80;1.00;;;;;;5018188;28;20802;-60
2023/02/09 12:20:00;;;;;;;14.77;9.90;;;5.70;1.00;;;;;;5031698;28;20288;-59
2023/02/09 12:22:32;;;;;;;18.40;10.33;;;5.80;1.00;;;;;;5031248;28;20269;-62
2023/02/09 12:25:31;;;;;;;15.67;9.20;;;6.00;1.00;;;;;;5030498;28;20206;-60
2023/02/09 12:28:07;;;;;;;14.17;9.60;;;6.00;1.00;;;;;;5004489;28;21178;-62
2023/02/09 12:30:40;;;;;;;17.13;9.90;;;6.30;1.00;;;;;;5022570;28;20255;-60
2023/02/09 12:33:20;;;;;;;15.13;9.40;;;6.20;1.00;;;;;;5030961;28;20600;-61
2023/02/09 12:36:02;;;;;;;17.27;11.47;;;6.10;1.00;;;;;;5030512;28;20240;-64
2023/02/09 12:38:42;;;;;;;14.97;10.03;;;6.10;1.00;;;;;;5025618;28;20626;-61
2023/02/09 12:41:41;;;;;;;16.70;11.00;;;6.20;1.00;;;;;;5026978;28;20205;-61
2023/02/09 12:44:08;;;;;;;16.97;11.03;;;6.40;1.00;;;;;;4982590;28;20220;-60
2023/02/09 12:46:44;;;;;;;15.87;10.50;;;6.40;1.00;;;;;;5020487;28;20230;-61
2023/02/09 12:49:10;;;;;;;16.37;10.20;;;6.40;1.00;;;;;;5032659;28;20627;-62
2023/02/09 12:51:54;;;;;;;18.73;11.10;;;6.30;1.00;;;;;;5037408;28;20696;-62
2023/02/09 12:54:42;;;;;;;13.97;10.07;;;6.10;1.00;;;;;;5035614;28;20707;-60
2023/02/09 12:57:15;;;;;;;15.23;9.67;;;6.10;1.00;;;;;;5027775;28;20645;-66
2023/02/09 12:59:48;;;;;;;17.37;10.53;;;6.10;1.00;;;;;;5018158;28;20205;-62
2023/02/09 13:02:36;;;;;;;14.80;10.30;;;6.10;1.00;;;;;;5026458;28;20193;-60
2023/02/09 13:05:15;;;;;;;19.20;11.33;;;6.20;1.00;;;;;;5028327;28;20211;-62
2023/02/09 13:07:59;;;;;;;21.17;12.00;;;6.10;1.00;;;;;;5028181;28;20212;-63
2023/02/09 13:10:31;;;;;;;20.93;11.50;;;6.10;1.00;;;;;;5028999;28;20209;-60
2023/02/09 13:13:10;;;;;;;18.93;11.27;;;6.00;1.00;;;;;;5021044;28;20709;-62
2023/02/09 13:15:49;;;;;;;17.70;11.63;;;5.90;1.00;;;;;;5029291;28;20327;-61
2023/02/09 13:18:22;;;;;;;22.30;11.80;;;5.90;1.00;;;;;;5025062;28;20196;-64
2023/02/09 13:21:00;;;;;;;16.57;11.07;;;5.80;1.00;;;;;;5030031;28;20193;-62
2023/02/09 13:23:57;;;;;;;19.70;11.60;;;5.70;1.00;;;;;;5028119;28;20282;-62
2023/02/09 13:26:29;;;;;;;22.37;12.00;;;5.70;4.90;;;;;;5027204;28;20508;-62
2023/02/09 13:29:13;;;;;;;17.13;11.27;;;5.80;36.90;;;;;;5022145;28;20203;-64
2023/02/09 13:31:56;;;;;;;23.47;11.90;;;5.70;1.00;;;;;;5026997;28;20276;-62
2023/02/09 13:34:29;;;;;;;18.90;11.97;;;5.60;25.80;;;;;;5025616;28;20235;-63